Time;durP1;ratioP1;P1;durP2;ratioP2;P2;SDS_P1;SDS_P2;PMS_P1;PMS_P2;Temp;Humidity;BMP_temperature;BMP_pressure;BME280_temperature;BME280_humidity;BME280_pressure;Samples;Min_cycle;Max_cycle;Signal;HPM_P1;HPM_P2
2022/08/31 00:06:32;;;;;;;3.90;1.60;;;13.60;99.90;;;;;;4385762;28;656643;-67
2022/08/31 00:09:20;;;;;;;2.27;1.40;;;13.50;99.90;;;;;;4411123;28;656714;-67
2022/08/31 00:12:08;;;;;;;4.40;1.67;;;13.40;99.90;;;;;;4410256;28;658302;-67
2022/08/31 00:14:55;;;;;;;4.87;1.70;;;13.20;99.90;;;;;;4400543;28;657018;-68
2022/08/31 00:17:42;;;;;;;2.00;1.40;;;12.90;99.90;;;;;;4409435;28;656610;-68
2022/08/31 00:20:29;;;;;;;2.50;1.60;;;12.90;99.90;;;;;;4410222;28;656303;-67
2022/08/31 00:23:18;;;;;;;2.43;1.40;;;12.90;99.90;;;;;;4388317;28;656750;-68
2022/08/31 00:26:05;;;;;;;3.23;1.77;;;12.90;99.90;;;;;;4385716;28;657395;-68
2022/08/31 00:28:52;;;;;;;4.10;1.77;;;12.90;99.90;;;;;;4404940;28;657463;-67
2022/08/31 00:31:40;;;;;;;2.57;1.90;;;12.80;99.90;;;;;;4404225;28;656679;-68
2022/08/31 00:34:27;;;;;;;7.17;2.00;;;12.70;99.90;;;;;;4407108;28;658207;-67
2022/08/31 00:37:15;;;;;;;6.07;2.30;;;12.70;99.90;;;;;;4412050;28;656780;-67
2022/08/31 00:40:04;;;;;;;3.13;1.97;;;12.40;99.90;;;;;;4409882;28;656131;-67
2022/08/31 00:42:51;;;;;;;2.33;1.90;;;12.40;99.90;;;;;;4383609;28;656873;-68
2022/08/31 00:45:38;;;;;;;6.47;2.40;;;12.30;99.90;;;;;;4407690;28;657093;-68
2022/08/31 00:48:25;;;;;;;4.00;2.10;;;12.30;99.90;;;;;;4384284;28;657083;-68
2022/08/31 00:51:13;;;;;;;4.43;1.90;;;12.20;99.90;;;;;;4405721;28;658083;-68
2022/08/31 00:54:00;;;;;;;4.83;2.10;;;12.20;99.90;;;;;;4390612;28;657080;-68
2022/08/31 00:56:49;;;;;;;5.30;1.70;;;12.20;99.90;;;;;;4405316;28;658141;-68
2022/08/31 00:59:36;;;;;;;5.85;1.80;;;12.20;99.90;;;;;;4383024;28;656691;-68
2022/08/31 01:02:23;;;;;;;4.67;1.90;;;12.20;99.90;;;;;;4407041;28;657852;-68
2022/08/31 01:05:10;;;;;;;9.50;1.80;;;12.20;99.90;;;;;;4387615;28;656309;-68
2022/08/31 01:07:57;;;;;;;5.30;1.87;;;12.20;99.90;;;;;;4401206;28;657425;-67
2022/08/31 01:10:45;;;;;;;7.90;2.00;;;12.30;99.90;;;;;;4402434;28;656739;-67
2022/08/31 01:13:33;;;;;;;3.03;1.90;;;12.40;99.90;;;;;;4384118;28;657773;-67
2022/08/31 01:16:22;;;;;;;4.43;2.00;;;12.40;99.90;;;;;;4387528;28;656823;-68
2022/08/31 01:19:13;;;;;;;2.30;1.70;;;12.40;99.90;;;;;;4403058;28;656573;-67
2022/08/31 01:22:04;;;;;;;5.10;1.97;;;12.40;99.90;;;;;;4371885;28;658562;-67
2022/08/31 01:24:53;;;;;;;2.80;1.77;;;12.40;99.90;;;;;;4387592;28;656514;-68
2022/08/31 01:27:40;;;;;;;4.77;2.00;;;12.30;99.90;;;;;;4397510;28;656841;-68
2022/08/31 01:30:27;;;;;;;5.10;2.13;;;12.30;99.90;;;;;;4411673;28;656665;-68
2022/08/31 01:33:14;;;;;;;6.35;2.10;;;12.30;99.90;;;;;;4413037;28;656948;-68
2022/08/31 01:36:02;;;;;;;3.10;1.97;;;12.50;99.90;;;;;;4385418;28;656302;-68
2022/08/31 01:38:49;;;;;;;3.17;2.10;;;12.50;99.90;;;;;;4408056;28;656400;-68
2022/08/31 01:41:40;;;;;;;4.60;1.90;;;12.70;99.90;;;;;;4370031;28;656570;-68
2022/08/31 01:44:27;;;;;;;4.77;1.80;;;12.70;99.90;;;;;;4366072;28;658194;-68
2022/08/31 01:47:14;;;;;;;4.60;1.63;;;12.70;99.90;;;;;;4395976;28;656204;-68
2022/08/31 01:50:01;;;;;;;5.27;1.70;;;12.70;99.90;;;;;;4373744;28;657059;-68
2022/08/31 01:52:48;;;;;;;7.10;2.03;;;12.80;99.90;;;;;;4391538;28;657414;-68
2022/08/31 01:55:35;;;;;;;5.13;1.70;;;12.80;99.90;;;;;;4371499;28;656721;-68
2022/08/31 01:58:24;;;;;;;5.77;1.87;;;12.90;99.90;;;;;;4392033;28;657508;-68
2022/08/31 02:01:11;;;;;;;4.67;1.90;;;12.90;99.90;;;;;;4372602;28;656399;-68
2022/08/31 02:03:58;;;;;;;5.37;1.90;;;13.10;99.90;;;;;;4392108;28;657255;-68
2022/08/31 02:06:47;;;;;;;4.03;2.50;;;13.10;99.90;;;;;;4373194;28;657024;-68
2022/08/31 02:09:34;;;;;;;4.97;2.50;;;13.20;99.90;;;;;;4391254;28;656783;-68
2022/08/31 02:12:21;;;;;;;3.23;2.10;;;13.40;99.90;;;;;;4371976;28;656367;-68
2022/08/31 02:15:11;;;;;;;2.97;2.00;;;13.50;99.90;;;;;;4389487;28;656893;-68
2022/08/31 02:17:58;;;;;;;4.10;2.27;;;13.60;99.90;;;;;;4373514;28;657121;-68
2022/08/31 02:20:45;;;;;;;3.13;2.10;;;13.70;99.90;;;;;;4369489;28;656803;-68
2022/08/31 02:23:32;;;;;;;4.20;2.23;;;13.70;99.90;;;;;;4392675;28;656960;-68
2022/08/31 02:26:20;;;;;;;3.63;2.27;;;13.80;99.90;;;;;;4392900;28;657056;-68
2022/08/31 02:29:07;;;;;;;3.93;2.23;;;14.00;99.90;;;;;;4395022;28;657215;-68
2022/08/31 02:31:57;;;;;;;3.20;1.90;;;14.00;99.90;;;;;;4392249;28;656381;-68
2022/08/31 02:34:44;;;;;;;2.30;1.90;;;14.10;99.90;;;;;;4371181;28;656867;-68
2022/08/31 02:37:31;;;;;;;3.90;2.30;;;14.20;99.90;;;;;;4372764;28;656539;-68
2022/08/31 02:40:18;;;;;;;2.83;1.90;;;14.30;99.90;;;;;;4392006;28;658360;-68
2022/08/31 02:43:05;;;;;;;2.47;1.90;;;14.30;99.90;;;;;;4374069;28;657289;-68
2022/08/31 02:45:53;;;;;;;3.03;2.17;;;14.30;99.90;;;;;;4389506;28;657619;-68
2022/08/31 02:48:41;;;;;;;2.30;1.93;;;14.40;99.90;;;;;;4380632;28;656590;-69
2022/08/31 02:51:29;;;;;;;3.80;2.13;;;14.40;99.90;;;;;;4390974;28;656607;-69
2022/08/31 02:54:16;;;;;;;2.80;2.10;;;14.40;99.90;;;;;;4373717;28;656178;-68
2022/08/31 02:57:03;;;;;;;6.37;2.10;;;14.40;99.90;;;;;;4391513;28;658526;-67
2022/08/31 02:59:50;;;;;;;3.73;1.60;;;14.40;99.90;;;;;;4375086;28;656636;-68
2022/08/31 03:02:39;;;;;;;4.90;2.13;;;14.40;99.90;;;;;;4397953;28;656906;-68
2022/08/31 03:05:28;;;;;;;4.20;2.00;;;14.50;99.90;;;;;;4372532;28;657045;-68
2022/08/31 03:08:15;;;;;;;3.60;1.97;;;14.50;99.90;;;;;;4375068;28;657051;-68
2022/08/31 03:11:02;;;;;;;2.80;1.50;;;14.50;99.90;;;;;;4395683;28;656741;-68
2022/08/31 03:13:49;;;;;;;3.67;1.53;;;14.50;99.90;;;;;;4388941;28;656999;-68
2022/08/31 03:16:38;;;;;;;2.37;1.40;;;14.40;99.90;;;;;;4369603;28;657148;-68
2022/08/31 03:19:25;;;;;;;3.37;1.60;;;14.40;99.90;;;;;;4372802;28;657158;-68
2022/08/31 03:22:14;;;;;;;2.47;1.63;;;14.40;99.90;;;;;;4390072;28;657927;-67
2022/08/31 03:25:01;;;;;;;3.63;1.67;;;14.40;99.90;;;;;;4372175;28;656855;-68
2022/08/31 03:27:48;;;;;;;4.23;1.60;;;14.40;99.90;;;;;;4390464;28;656756;-68
2022/08/31 03:30:35;;;;;;;7.50;1.80;;;14.40;99.90;;;;;;4370101;28;656905;-68
2022/08/31 03:33:22;;;;;;;2.23;1.30;;;14.40;99.90;;;;;;4389246;28;658292;-68
2022/08/31 03:36:10;;;;;;;4.10;1.60;;;14.50;99.90;;;;;;4388942;28;656741;-68
2022/08/31 03:38:58;;;;;;;4.47;1.80;;;14.40;99.90;;;;;;4400457;28;656740;-68
2022/08/31 03:41:46;;;;;;;4.33;2.10;;;14.40;99.90;;;;;;4385847;28;656687;-69
2022/08/31 03:44:33;;;;;;;7.80;2.37;;;14.40;99.90;;;;;;4411666;28;657316;-68
2022/08/31 03:47:20;;;;;;;3.60;2.33;;;14.40;99.90;;;;;;4389607;28;657007;-68
2022/08/31 03:50:09;;;;;;;4.53;2.63;;;14.40;99.90;;;;;;4405759;28;657445;-68
2022/08/31 03:52:56;;;;;;;9.40;2.90;;;14.40;99.90;;;;;;4388284;28;656606;-68
2022/08/31 03:55:45;;;;;;;6.27;2.47;;;14.30;99.90;;;;;;4405632;28;657388;-68
2022/08/31 03:58:32;;;;;;;3.67;2.50;;;14.30;99.90;;;;;;4384483;28;658373;-68
2022/08/31 04:01:19;;;;;;;5.20;2.50;;;14.30;99.90;;;;;;4407465;28;657340;-68
2022/08/31 04:04:06;;;;;;;5.13;2.47;;;14.30;99.90;;;;;;4385936;28;657202;-68
2022/08/31 04:06:53;;;;;;;7.73;2.40;;;14.30;99.90;;;;;;4404984;28;656838;-68
2022/08/31 04:09:40;;;;;;;5.83;2.47;;;14.30;99.90;;;;;;4385424;28;657797;-68
2022/08/31 04:12:29;;;;;;;5.87;2.67;;;14.30;99.90;;;;;;4405844;28;657905;-68
2022/08/31 04:15:16;;;;;;;4.37;2.50;;;14.40;99.90;;;;;;4388366;28;656602;-68
2022/08/31 04:18:04;;;;;;;5.73;2.80;;;14.40;99.90;;;;;;4405701;28;657580;-68
2022/08/31 04:20:51;;;;;;;5.37;2.13;;;14.50;99.90;;;;;;4384215;28;656226;-68
2022/08/31 04:23:39;;;;;;;6.45;2.42;;;14.40;99.90;;;;;;4405760;28;657454;-68
2022/08/31 04:26:27;;;;;;;6.70;2.57;;;14.50;99.90;;;;;;4387649;28;656720;-68
2022/08/31 04:29:16;;;;;;;4.60;2.60;;;14.50;99.90;;;;;;4408776;28;657178;-68
2022/08/31 04:32:03;;;;;;;3.43;2.60;;;14.50;99.90;;;;;;4383572;28;657775;-69
2022/08/31 04:34:51;;;;;;;6.40;2.60;;;14.60;99.90;;;;;;4387809;28;656880;-68
2022/08/31 04:37:40;;;;;;;3.97;2.37;;;14.60;99.90;;;;;;4407065;28;657404;-68
2022/08/31 04:40:27;;;;;;;5.33;2.50;;;14.70;99.90;;;;;;4384573;28;656969;-68
2022/08/31 04:43:14;;;;;;;4.73;2.63;;;14.80;99.90;;;;;;4406343;28;657051;-68
2022/08/31 04:46:03;;;;;;;6.67;2.43;;;14.90;99.90;;;;;;4384002;28;656317;-68
2022/08/31 04:48:50;;;;;;;3.10;2.10;;;15.00;99.90;;;;;;4387941;28;656337;-68
2022/08/31 04:51:38;;;;;;;6.97;2.50;;;15.10;99.90;;;;;;4407319;28;658127;-68
2022/08/31 04:54:25;;;;;;;6.90;2.40;;;15.20;99.90;;;;;;4392891;28;656815;-69
2022/08/31 04:57:12;;;;;;;7.10;2.57;;;15.30;99.90;;;;;;4414799;28;656610;-68
2022/08/31 04:59:59;;;;;;;4.80;2.67;;;15.40;99.90;;;;;;4409693;28;658003;-68
2022/08/31 05:02:48;;;;;;;7.40;2.73;;;15.50;99.90;;;;;;4387376;28;656420;-68
2022/08/31 05:05:37;;;;;;;6.80;2.30;;;15.60;99.90;;;;;;4400237;28;657269;-69
2022/08/31 05:08:26;;;;;;;6.53;2.63;;;15.70;99.90;;;;;;4407782;28;656814;-69
2022/08/31 05:11:14;;;;;;;5.30;2.40;;;15.90;99.90;;;;;;4410711;28;657243;-67
2022/08/31 05:14:02;;;;;;;4.33;2.30;;;15.90;99.90;;;;;;4390654;28;656084;-68
2022/08/31 05:16:50;;;;;;;2.90;2.20;;;15.90;99.90;;;;;;4407709;28;656781;-68
2022/08/31 05:19:39;;;;;;;4.97;1.80;;;16.00;99.90;;;;;;4407788;28;658170;-71
2022/08/31 05:22:26;;;;;;;5.27;2.03;;;16.10;99.90;;;;;;4388750;28;656440;-71
2022/08/31 05:25:13;;;;;;;3.90;1.83;;;16.10;99.90;;;;;;4408796;28;656802;-71
2022/08/31 05:28:00;;;;;;;2.43;1.53;;;16.20;99.90;;;;;;4386978;28;657353;-69
2022/08/31 05:30:47;;;;;;;4.87;1.50;;;16.30;99.90;;;;;;4409194;28;657752;-70
2022/08/31 05:33:35;;;;;;;2.90;1.40;;;16.40;99.90;;;;;;4406625;28;657834;-67
2022/08/31 05:36:23;;;;;;;2.83;1.70;;;16.40;99.90;;;;;;4413280;28;657142;-70
2022/08/31 05:39:11;;;;;;;3.73;1.40;;;16.40;99.90;;;;;;4390187;28;656530;-70
2022/08/31 05:41:58;;;;;;;3.63;1.47;;;16.50;99.90;;;;;;4402606;28;657281;-71
2022/08/31 05:44:45;;;;;;;3.43;1.53;;;16.50;99.90;;;;;;4386133;28;656570;-71
2022/08/31 05:47:32;;;;;;;4.10;1.50;;;16.40;99.90;;;;;;4403734;28;657757;-70
2022/08/31 05:50:20;;;;;;;3.23;1.70;;;16.50;99.90;;;;;;4403599;28;657412;-67
2022/08/31 05:53:09;;;;;;;3.45;1.40;;;16.40;99.90;;;;;;4410511;28;656786;-70
2022/08/31 05:56:00;;;;;;;5.67;1.47;;;16.40;99.90;;;;;;4389234;28;656434;-70
2022/08/31 05:58:47;;;;;;;7.87;1.60;;;16.50;99.90;;;;;;4386948;28;657796;-70
2022/08/31 06:01:36;;;;;;;3.27;1.60;;;16.50;99.90;;;;;;4406328;28;656232;-70
2022/08/31 06:04:23;;;;;;;3.80;1.60;;;16.60;99.90;;;;;;4388222;28;657245;-71
2022/08/31 06:07:11;;;;;;;4.77;1.73;;;16.70;99.90;;;;;;4386960;28;656506;-70
2022/08/31 06:10:00;;;;;;;4.97;1.80;;;16.70;99.90;;;;;;4409434;28;657777;-70
2022/08/31 06:12:47;;;;;;;5.60;1.87;;;16.80;99.90;;;;;;4384245;28;657844;-70
2022/08/31 06:15:34;;;;;;;6.93;2.57;;;16.90;99.90;;;;;;4405653;28;656801;-70
2022/08/31 06:18:21;;;;;;;7.90;3.20;;;17.00;99.90;;;;;;4390828;28;656199;-70
2022/08/31 06:21:09;;;;;;;5.37;2.50;;;17.00;99.90;;;;;;4412463;28;657947;-70
2022/08/31 06:23:57;;;;;;;6.63;2.70;;;17.20;99.90;;;;;;4383779;28;656608;-70
2022/08/31 06:26:51;;;;;;;3.70;1.80;;;17.40;99.90;;;;;;4409761;28;656874;-70
2022/08/31 06:29:40;;;;;;;3.53;1.70;;;17.50;99.90;;;;;;4388745;28;657239;-70
2022/08/31 06:32:28;;;;;;;5.10;1.83;;;17.60;99.90;;;;;;4389764;28;657420;-70
2022/08/31 06:35:15;;;;;;;3.70;2.00;;;17.60;99.90;;;;;;4399560;28;656906;-68
2022/08/31 06:38:02;;;;;;;8.70;2.13;;;17.60;99.90;;;;;;4405161;28;657834;-71
2022/08/31 06:40:49;;;;;;;7.97;2.00;;;17.60;99.90;;;;;;4408887;28;656969;-70
2022/08/31 06:43:38;;;;;;;4.27;1.87;;;17.70;99.90;;;;;;4393202;28;656314;-71
2022/08/31 06:46:25;;;;;;;6.97;2.83;;;17.90;99.90;;;;;;4395093;28;658764;-68
2022/08/31 06:49:12;;;;;;;8.60;2.70;;;17.90;99.90;;;;;;4409298;28;656676;-69
2022/08/31 06:51:59;;;;;;;2.83;2.00;;;18.00;99.90;;;;;;4407069;28;656643;-70
2022/08/31 06:54:46;;;;;;;3.20;2.00;;;18.10;99.90;;;;;;4388962;28;656410;-71
2022/08/31 06:57:34;;;;;;;4.70;1.90;;;18.00;99.90;;;;;;4407963;28;656958;-70
2022/08/31 07:00:22;;;;;;;5.57;2.10;;;18.20;99.90;;;;;;4382752;28;656809;-70
2022/08/31 07:03:22;;;;;;;3.47;2.03;;;18.50;99.90;;;;;;4408577;28;656895;-71
2022/08/31 07:06:12;;;;;;;7.93;2.30;;;18.50;99.90;;;;;;4381300;28;656786;-71
2022/08/31 07:09:02;;;;;;;6.87;2.20;;;18.80;99.90;;;;;;4386110;28;656554;-70
2022/08/31 07:11:50;;;;;;;3.50;2.00;;;18.80;99.90;;;;;;4379707;28;656898;-71
2022/08/31 07:14:38;;;;;;;5.10;2.40;;;18.90;99.90;;;;;;4382416;28;657623;-71
2022/08/31 07:17:26;;;;;;;4.60;2.00;;;19.00;99.90;;;;;;4386544;28;656231;-68
2022/08/31 07:20:14;;;;;;;5.20;2.33;;;19.00;99.90;;;;;;4404705;28;657442;-69
2022/08/31 07:23:01;;;;;;;3.87;1.83;;;18.80;99.90;;;;;;4387759;28;656421;-71
2022/08/31 07:25:48;;;;;;;8.63;2.00;;;19.00;99.90;;;;;;4409782;28;657431;-71
2022/08/31 07:28:37;;;;;;;4.17;1.80;;;19.10;99.90;;;;;;4389841;28;658096;-67
2022/08/31 07:31:26;;;;;;;3.97;1.87;;;19.10;99.90;;;;;;4406866;28;656863;-71
2022/08/31 07:34:16;;;;;;;4.53;1.70;;;19.20;99.90;;;;;;4383884;28;657773;-68
2022/08/31 07:43:13;;;;;;;3.70;1.87;;;19.20;99.90;;;;;;4381690;28;656986;-67
2022/08/31 07:46:01;;;;;;;6.17;2.37;;;19.30;99.90;;;;;;4383307;28;656652;-70
2022/08/31 07:48:48;;;;;;;4.27;1.73;;;19.30;99.90;;;;;;4407909;28;657851;-71
2022/08/31 07:51:37;;;;;;;6.33;1.87;;;19.40;99.90;;;;;;4390686;28;657558;-68
2022/08/31 07:54:26;;;;;;;7.20;2.00;;;19.60;99.90;;;;;;4411401;28;657633;-71
2022/08/31 07:57:14;;;;;;;2.83;2.03;;;19.70;99.90;;;;;;4382899;28;657051;-70
2022/08/31 08:00:07;;;;;;;5.07;2.30;;;19.60;99.90;;;;;;4388004;28;656913;-71
2022/08/31 08:02:54;;;;;;;3.30;2.00;;;19.60;99.90;;;;;;4382035;28;656658;-71
2022/08/31 08:05:42;;;;;;;3.80;1.93;;;19.70;99.90;;;;;;4383621;28;656525;-71
2022/08/31 08:08:31;;;;;;;4.83;2.27;;;19.50;99.90;;;;;;4404306;28;656375;-70
2022/08/31 08:11:19;;;;;;;3.43;2.07;;;19.60;99.90;;;;;;4386332;28;657372;-70
2022/08/31 08:14:07;;;;;;;3.30;2.17;;;19.40;99.90;;;;;;4382703;28;657098;-70
2022/08/31 08:16:54;;;;;;;4.10;2.17;;;19.60;99.90;;;;;;4405595;28;656672;-71
2022/08/31 08:19:41;;;;;;;4.57;2.10;;;19.70;99.90;;;;;;4381252;28;656366;-72
2022/08/31 08:22:28;;;;;;;5.00;2.40;;;19.60;99.90;;;;;;4408751;28;657510;-71
2022/08/31 08:25:17;;;;;;;4.00;2.30;;;19.70;99.90;;;;;;4385021;28;657259;-69
2022/08/31 08:28:04;;;;;;;4.20;2.40;;;19.60;99.90;;;;;;4400173;28;656922;-71
2022/08/31 08:30:53;;;;;;;4.40;2.60;;;19.80;99.90;;;;;;4384996;28;656752;-71
2022/08/31 08:33:40;;;;;;;4.77;2.50;;;19.80;99.90;;;;;;4391733;28;656950;-69
2022/08/31 08:36:27;;;;;;;2.90;2.30;;;20.00;99.90;;;;;;4409537;28;657163;-72
2022/08/31 08:39:14;;;;;;;4.53;2.57;;;20.20;99.90;;;;;;4407018;28;656711;-68
2022/08/31 08:42:03;;;;;;;3.43;2.13;;;20.40;99.90;;;;;;4385633;28;656729;-71
2022/08/31 08:44:50;;;;;;;4.57;2.20;;;20.80;99.90;;;;;;4386207;28;657012;-70
2022/08/31 08:47:37;;;;;;;4.87;1.90;;;20.90;99.90;;;;;;4411483;28;657151;-71
2022/08/31 08:50:26;;;;;;;2.87;2.00;;;20.90;99.90;;;;;;4408826;28;656220;-71
2022/08/31 08:53:14;;;;;;;7.30;1.90;;;21.00;99.90;;;;;;4406717;28;657503;-69
2022/08/31 08:56:01;;;;;;;2.60;1.80;;;21.00;99.90;;;;;;4385176;28;656909;-71
2022/08/31 08:58:49;;;;;;;4.60;1.73;;;21.20;99.90;;;;;;4409795;28;656928;-68
2022/08/31 09:01:36;;;;;;;2.40;1.60;;;21.30;99.90;;;;;;4389594;28;656902;-72
2022/08/31 09:04:35;;;;;;;1.87;1.47;;;21.10;99.90;;;;;;4405413;28;657483;-72
2022/08/31 09:07:31;;;;;;;1.83;1.47;;;21.20;99.90;;;;;;4383177;28;657092;-71
2022/08/31 09:10:22;;;;;;;7.17;1.57;;;21.30;99.90;;;;;;4379714;28;657299;-71
2022/08/31 09:13:18;;;;;;;4.50;1.60;;;21.30;99.90;;;;;;4382405;28;656335;-71
2022/08/31 09:16:16;;;;;;;3.87;1.50;;;21.30;99.90;;;;;;4370488;28;656318;-68
2022/08/31 09:19:05;;;;;;;3.10;1.70;;;21.20;99.90;;;;;;4381714;28;656922;-72
2022/08/31 09:21:54;;;;;;;4.50;1.40;;;21.20;99.90;;;;;;4386158;28;657509;-70
2022/08/31 09:24:41;;;;;;;2.90;1.37;;;20.90;99.90;;;;;;4387335;28;657166;-72
2022/08/31 09:27:45;;;;;;;6.30;1.97;;;20.90;99.90;;;;;;4405566;28;657643;-72
2022/08/31 09:30:37;;;;;;;4.17;1.50;;;20.80;99.90;;;;;;4383609;28;657014;-72
2022/08/31 09:33:26;;;;;;;5.17;1.53;;;20.90;99.90;;;;;;4384654;28;658550;-72
2022/08/31 09:36:15;;;;;;;3.53;1.40;;;20.80;99.90;;;;;;4383902;28;656485;-71
2022/08/31 09:39:14;;;;;;;3.07;1.50;;;20.90;99.90;;;;;;4387632;28;657069;-71
2022/08/31 09:42:03;;;;;;;3.97;1.50;;;20.80;99.90;;;;;;4388055;28;656787;-70
2022/08/31 09:44:50;;;;;;;4.83;1.80;;;20.80;99.90;;;;;;4391973;28;656548;-68
2022/08/31 09:47:47;;;;;;;3.88;1.58;;;20.90;99.90;;;;;;4411606;28;656615;-72
2022/08/31 09:50:43;;;;;;;4.60;1.57;;;20.90;99.90;;;;;;4387854;28;656330;-72
2022/08/31 09:56:51;;;;;;;2.93;1.33;;;20.50;99.90;;;;;;4374484;28;656729;-68
2022/08/31 09:59:40;;;;;;;5.27;1.47;;;20.30;99.90;;;;;;4390247;28;657207;-72
2022/08/31 10:02:32;;;;;;;3.40;1.50;;;20.20;99.90;;;;;;4387014;28;657347;-72
2022/08/31 10:05:31;;;;;;;2.40;1.47;;;20.20;99.90;;;;;;4388014;28;656673;-67
2022/08/31 10:08:32;;;;;;;5.97;1.80;;;20.30;99.90;;;;;;4386723;28;657035;-69
2022/08/31 10:11:20;;;;;;;6.37;2.23;;;20.20;99.90;;;;;;4387948;28;656740;-68
2022/08/31 10:14:15;;;;;;;6.93;2.37;;;20.30;99.90;;;;;;4388500;28;657696;-71
2022/08/31 10:17:06;;;;;;;3.73;1.90;;;20.20;99.90;;;;;;4362726;28;657666;-72
2022/08/31 10:19:55;;;;;;;3.10;1.30;;;20.50;99.90;;;;;;4386605;28;657018;-71
2022/08/31 10:22:44;;;;;;;2.43;1.20;;;20.60;99.90;;;;;;4386460;28;657299;-71
2022/08/31 10:25:37;;;;;;;4.03;1.37;;;20.80;99.90;;;;;;4390466;28;657100;-71
2022/08/31 10:28:30;;;;;;;5.27;1.70;;;20.70;99.90;;;;;;4387130;28;656562;-70
2022/08/31 10:31:22;;;;;;;2.23;1.30;;;20.60;99.90;;;;;;4385639;28;656572;-71
2022/08/31 10:37:19;;;;;;;4.07;1.50;;;20.50;99.90;;;;;;4362836;28;656846;-71
2022/08/31 10:40:09;;;;;;;3.00;1.30;;;20.40;99.90;;;;;;4386907;28;656538;-71
2022/08/31 10:43:08;;;;;;;6.17;2.00;;;20.40;99.90;;;;;;4388477;28;656597;-71
2022/08/31 10:45:55;;;;;;;4.77;1.40;;;20.50;99.90;;;;;;4372473;28;656353;-67
2022/08/31 10:48:50;;;;;;;4.30;1.90;;;20.70;99.90;;;;;;4410977;28;656448;-71
2022/08/31 10:51:40;;;;;;;5.20;1.37;;;20.90;99.90;;;;;;4364344;28;657118;-72
2022/08/31 10:54:33;;;;;;;11.77;4.13;;;21.00;99.90;;;;;;4382242;28;657224;-71
2022/08/31 10:57:30;;;;;;;6.67;2.57;;;21.00;99.90;;;;;;4388793;28;657664;-68
2022/08/31 11:03:50;;;;;;;3.17;1.23;;;21.50;99.90;;;;;;4367318;28;656950;-70
2022/08/31 11:06:39;;;;;;;5.67;1.70;;;21.30;99.90;;;;;;4359426;28;658208;-72
2022/08/31 11:09:31;;;;;;;5.23;1.87;;;21.30;99.90;;;;;;4380273;28;657309;-70
2022/08/31 11:12:20;;;;;;;8.53;1.80;;;21.30;99.90;;;;;;4380136;28;657735;-71
2022/08/31 11:15:22;;;;;;;14.93;2.30;;;21.20;99.90;;;;;;4385949;28;656592;-71
2022/08/31 11:18:24;;;;;;;11.13;3.30;;;21.20;99.90;;;;;;4407596;28;657475;-69
2022/08/31 11:21:56;;;;;;;4.00;1.57;;;21.10;99.90;;;;;;4357716;28;659090;-71
2022/08/31 11:25:02;;;;;;;3.47;1.20;;;21.00;99.90;;;;;;4330375;28;656702;-71
2022/08/31 11:27:51;;;;;;;7.67;1.97;;;21.10;99.90;;;;;;4404239;28;656462;-71
2022/08/31 11:30:44;;;;;;;5.33;1.90;;;21.10;99.90;;;;;;4403650;28;657372;-71
2022/08/31 11:33:31;;;;;;;2.27;1.10;;;21.30;99.90;;;;;;4360030;28;657272;-71
2022/08/31 11:36:48;;;;;;;5.80;0.93;;;21.70;99.90;;;;;;4406028;28;657525;-70
2022/08/31 11:39:39;;;;;;;5.80;1.30;;;22.30;99.90;;;;;;4387881;28;656814;-71
2022/08/31 11:42:59;;;;;;;2.23;1.00;;;22.40;99.80;;;;;;4389916;28;656925;-71
2022/08/31 11:45:49;;;;;;;4.43;0.70;;;22.30;97.70;;;;;;4389833;28;656663;-71
2022/08/31 11:48:58;;;;;;;0.87;0.70;;;22.60;94.70;;;;;;4386263;28;657691;-72
2022/08/31 11:51:46;;;;;;;4.33;0.90;;;22.70;96.00;;;;;;4366246;28;657122;-70
2022/08/31 11:55:05;;;;;;;2.80;1.20;;;22.90;94.50;;;;;;4408607;28;656963;-72
2022/08/31 11:58:18;;;;;;;2.33;0.90;;;22.80;93.30;;;;;;4384821;28;657255;-71
2022/08/31 12:01:24;;;;;;;3.67;0.97;;;22.80;94.00;;;;;;4365481;28;656871;-71
2022/08/31 12:04:46;;;;;;;3.00;0.90;;;22.60;94.50;;;;;;4386745;28;657098;-72
2022/08/31 12:07:40;;;;;;;4.90;1.30;;;23.00;93.60;;;;;;4387411;28;656566;-72
2022/08/31 12:10:34;;;;;;;3.50;1.40;;;22.80;92.80;;;;;;4363212;28;657342;-72
2022/08/31 12:13:32;;;;;;;1.97;1.20;;;22.60;93.30;;;;;;4391023;28;656877;-72
2022/08/31 12:16:35;;;;;;;2.83;1.03;;;22.60;93.00;;;;;;4406663;28;656145;-69
2022/08/31 12:26:33;;;;;;;1.53;0.90;;;22.00;92.20;;;;;;4385373;28;656770;-73
2022/08/31 12:29:23;;;;;;;5.10;1.03;;;22.10;94.30;;;;;;4389015;28;656820;-69
2022/08/31 12:32:21;;;;;;;2.23;0.90;;;22.20;92.40;;;;;;4388356;28;656857;-68
2022/08/31 12:35:12;;;;;;;4.80;1.23;;;22.00;92.30;;;;;;4381875;28;656626;-70
2022/08/31 12:38:00;;;;;;;2.63;0.90;;;22.20;92.80;;;;;;4380619;28;656476;-74
2022/08/31 12:40:48;;;;;;;1.37;0.70;;;22.30;92.80;;;;;;4386932;28;656808;-73
2022/08/31 12:43:37;;;;;;;1.77;0.87;;;22.40;90.30;;;;;;4384851;28;656846;-71
2022/08/31 12:46:31;;;;;;;1.33;0.80;;;22.30;91.40;;;;;;4406859;28;657105;-72
2022/08/31 12:49:42;;;;;;;2.60;1.00;;;22.50;91.80;;;;;;4384726;28;657403;-74
2022/08/31 12:52:38;;;;;;;2.73;1.20;;;22.80;91.40;;;;;;4385111;28;656777;-73
2022/08/31 12:55:30;;;;;;;1.93;0.83;;;23.20;86.80;;;;;;4365738;28;656810;-72
2022/08/31 12:58:27;;;;;;;3.13;0.90;;;23.40;82.80;;;;;;4384085;28;657356;-74
2022/08/31 13:01:16;;;;;;;0.90;0.73;;;23.30;79.80;;;;;;4384317;28;656465;-72
2022/08/31 13:04:03;;;;;;;1.08;0.80;;;23.60;88.30;;;;;;4382085;28;657562;-74
2022/08/31 13:06:52;;;;;;;1.95;1.00;;;23.50;81.90;;;;;;4387802;28;656751;-70
2022/08/31 13:09:41;;;;;;;1.90;0.90;;;23.50;86.60;;;;;;4405663;28;657400;-74
2022/08/31 13:12:28;;;;;;;1.27;0.80;;;23.60;76.40;;;;;;4378201;28;657220;-71
2022/08/31 13:15:21;;;;;;;1.65;0.80;;;23.90;82.70;;;;;;4394424;28;657288;-69
2022/08/31 13:18:13;;;;;;;2.08;0.98;;;24.20;80.20;;;;;;4387045;28;657702;-75
2022/08/31 13:21:02;;;;;;;1.92;0.93;;;23.80;74.70;;;;;;4379174;28;657039;-69
2022/08/31 13:23:51;;;;;;;1.42;0.90;;;24.50;77.20;;;;;;4409278;28;656595;-70
2022/08/31 13:26:38;;;;;;;4.15;0.95;;;24.20;70.00;;;;;;4382090;28;657206;-74
2022/08/31 13:29:25;;;;;;;2.08;0.80;;;23.80;72.30;;;;;;4392676;28;657061;-69
2022/08/31 13:32:14;;;;;;;2.72;0.88;;;23.40;68.80;;;;;;4413642;28;655949;-75
2022/08/31 13:35:03;;;;;;;1.63;0.60;;;23.00;70.00;;;;;;4387786;28;656498;-74
2022/08/31 13:38:02;;;;;;;2.85;0.90;;;22.80;72.50;;;;;;4400884;28;656990;-67
2022/08/31 13:40:51;;;;;;;1.33;0.88;;;22.50;73.90;;;;;;4369278;28;656948;-70
2022/08/31 13:43:38;;;;;;;2.17;0.90;;;22.10;73.40;;;;;;4364585;28;656896;-73
2022/08/31 13:46:27;;;;;;;1.40;0.73;;;21.80;76.30;;;;;;4373009;28;657449;-72
2022/08/31 13:49:24;;;;;;;0.80;0.80;;;21.90;78.70;;;;;;4391370;28;657386;-72
2022/08/31 13:52:15;;;;;;;0.60;0.60;;;22.00;75.50;;;;;;4353728;28;656812;-74
2022/08/31 13:55:04;;;;;;;2.50;0.80;;;22.00;78.10;;;;;;4372902;28;656810;-73
2022/08/31 13:57:59;;;;;;;2.30;0.80;;;22.20;73.40;;;;;;4366972;28;656558;-70
2022/08/31 14:00:46;;;;;;;2.23;0.80;;;22.20;79.40;;;;;;4347163;28;657396;-74
2022/08/31 14:03:41;;;;;;;4.03;0.60;;;22.50;77.30;;;;;;4394752;28;656895;-73
2022/08/31 14:06:33;;;;;;;6.70;1.10;;;22.60;76.20;;;;;;4367747;28;656769;-71
2022/08/31 14:09:20;;;;;;;2.83;0.80;;;22.80;73.10;;;;;;4373392;28;656795;-67
2022/08/31 14:12:08;;;;;;;2.20;0.97;;;22.90;74.50;;;;;;4388098;28;657404;-71
2022/08/31 14:14:58;;;;;;;2.72;1.23;;;22.70;73.80;;;;;;4372644;28;656574;-68
2022/08/31 14:17:46;;;;;;;2.77;0.90;;;22.70;76.50;;;;;;4373784;28;656445;-67
2022/08/31 14:20:35;;;;;;;1.95;0.85;;;22.40;77.90;;;;;;4390444;28;657902;-71
2022/08/31 14:23:33;;;;;;;2.37;0.83;;;22.40;77.10;;;;;;4365327;28;657804;-70
2022/08/31 14:26:24;;;;;;;2.57;0.87;;;22.40;76.50;;;;;;4350542;28;656739;-69
2022/08/31 14:29:13;;;;;;;1.83;0.73;;;22.70;77.30;;;;;;4370411;28;658111;-72
2022/08/31 14:32:03;;;;;;;2.67;0.97;;;22.90;77.60;;;;;;4380981;28;656813;-69
2022/08/31 14:34:51;;;;;;;4.77;0.90;;;22.90;79.50;;;;;;4373756;28;656873;-67
2022/08/31 14:37:42;;;;;;;1.67;0.90;;;22.80;77.50;;;;;;4391984;28;657189;-71
2022/08/31 14:40:30;;;;;;;2.10;0.83;;;22.80;78.50;;;;;;4402971;28;656566;-69
2022/08/31 14:43:17;;;;;;;1.00;0.90;;;22.60;78.70;;;;;;4411773;28;656320;-72
2022/08/31 14:46:05;;;;;;;2.00;0.87;;;22.70;80.40;;;;;;4407562;28;657338;-70
2022/08/31 14:48:55;;;;;;;3.63;1.00;;;22.70;80.50;;;;;;4384879;28;658152;-69
2022/08/31 14:51:43;;;;;;;2.60;1.00;;;22.80;84.40;;;;;;4387622;28;657511;-73
2022/08/31 14:54:33;;;;;;;4.20;0.90;;;22.70;81.00;;;;;;4392070;28;656424;-70
2022/08/31 14:57:23;;;;;;;2.30;0.90;;;22.60;79.30;;;;;;4390288;28;656455;-70
2022/08/31 15:00:12;;;;;;;2.67;0.87;;;22.50;79.00;;;;;;4386866;28;656771;-72